createdAt,value
2022-08-09T06:34:23.369Z,97253.91
2022-08-09T06:35:56.586Z,97257.31
2022-08-09T06:36:46.609Z,97249.22
2022-08-09T06:37:52.982Z,97255.34
2022-08-09T06:55:41.477Z,97258.78
2022-08-09T06:56:45.563Z,97262.53
2022-08-09T06:58:03.198Z,97260.38
2022-08-09T07:00:49.221Z,97253.84
2022-08-09T07:14:26.778Z,97274.03
2022-08-09T07:16:38.932Z,97282.81
2022-08-09T07:16:55.319Z,97269.44
2022-08-09T07:18:02.591Z,97280.63
2022-08-09T07:19:04.526Z,97280.44
2022-08-09T07:34:48.341Z,97290.25
2022-08-09T07:35:54.714Z,97288.03
2022-08-09T07:36:56.691Z,97293.22
2022-08-09T07:37:59.511Z,97290.69
2022-08-09T07:39:02.358Z,97290.78
2022-08-09T07:40:05.033Z,97288.94
2022-08-09T07:56:03.695Z,97289.53
2022-08-09T07:57:11.762Z,97287.44
2022-08-09T07:58:14.153Z,97296.09
2022-08-09T07:59:33.600Z,97293.88
2022-08-09T08:00:37.980Z,97300.38
2022-08-09T08:01:57.801Z,97297.00
2022-08-09T08:03:00.987Z,97293.91
2022-08-09T08:19:04.759Z,97304.31
2022-08-09T08:20:12.962Z,97301.56
2022-08-09T08:21:15.057Z,97304.88
2022-08-09T08:22:17.138Z,97306.50
2022-08-09T08:23:27.292Z,97301.91
2022-08-09T08:24:35.455Z,97309.44
2022-08-09T08:25:44.257Z,97305.59
2022-08-09T08:26:55.467Z,97296.53
2022-08-09T08:27:58.475Z,97302.72
2022-08-09T08:28:59.865Z,97308.63
2022-08-09T08:47:12.770Z,97314.13
2022-08-09T08:48:16.831Z,97312.81
2022-08-09T08:49:22.614Z,97325.97
2022-08-09T08:50:39.996Z,97317.53
2022-08-09T08:52:01.905Z,97309.47
2022-08-09T08:53:11.810Z,97315.75
2022-08-09T08:54:20.512Z,97318.66
2022-08-09T08:55:30.205Z,97317.72
2022-08-09T08:56:38.426Z,97323.03
2022-08-09T08:57:41.757Z,97316.00
2022-08-09T08:58:44.445Z,97328.09
2022-08-09T08:59:49.769Z,97332.75
2022-08-09T09:19:41.530Z,97327.34
2022-08-09T09:20:36.499Z,97319.81
2022-08-09T09:22:14.049Z,97307.41
2022-08-09T09:23:17.618Z,97314.75
2022-08-09T09:24:21.853Z,97318.38
2022-08-09T09:26:01.002Z,97316.25
2022-08-09T09:27:04.491Z,97319.09
2022-08-09T09:28:10.766Z,97310.34
2022-08-09T09:29:16.904Z,97311.28
2022-08-09T09:30:37.984Z,97321.47
2022-08-09T09:32:06.091Z,97310.97
2022-08-09T09:33:16.668Z,97316.56
2022-08-09T09:34:19.086Z,97310.88
2022-08-09T09:35:20.560Z,97304.00
2022-08-09T09:36:22.377Z,97308.91
2022-08-09T09:37:31.957Z,97313.97
2022-08-09T09:58:17.218Z,97304.94
2022-08-09T09:59:35.570Z,97303.31
2022-08-09T10:00:44.155Z,97305.34
2022-08-09T10:02:00.333Z,97306.94
2022-08-09T10:03:11.681Z,97314.91
2022-08-09T10:04:23.040Z,97307.06
2022-08-09T10:06:01.056Z,97309.00
2022-08-09T10:06:54.535Z,97307.91
2022-08-09T10:08:26.100Z,97299.16
2022-08-09T10:09:27.605Z,97305.81
2022-08-09T10:10:31.680Z,97302.38
2022-08-09T10:11:59.244Z,97306.84
2022-08-09T10:12:56.016Z,97310.75
2022-08-09T10:13:57.952Z,97312.81
2022-08-09T10:15:17.581Z,97300.97
2022-08-09T10:16:57.180Z,97291.03
2022-08-09T10:17:56.509Z,97302.06
2022-08-09T10:19:02.300Z,97297.28
2022-08-09T10:20:10.841Z,97295.94
2022-08-09T10:21:16.569Z,97287.31
2022-08-09T10:22:29.376Z,97296.00
2022-08-09T10:23:34.604Z,97287.91
2022-08-09T10:24:36.827Z,97297.19
2022-08-09T10:45:58.393Z,97280.69
2022-08-09T10:48:26.130Z,97276.03
2022-08-09T10:49:12.591Z,97287.91
2022-08-09T10:50:55.137Z,97283.38
2022-08-09T10:52:13.619Z,97283.47
2022-08-09T10:53:39.310Z,97284.84
2022-08-09T10:54:41.174Z,97281.63
2022-08-09T10:55:58.922Z,97286.78
2022-08-09T10:57:14.524Z,97285.88
2022-08-09T10:58:37.385Z,97292.38
2022-08-09T10:59:55.355Z,97283.44
2022-08-09T11:03:02.437Z,97284.47
2022-08-09T11:03:11.918Z,97285.47
2022-08-09T11:04:20.051Z,97293.13
2022-08-09T11:05:31.404Z,97288.06
2022-08-09T11:06:34.763Z,97300.28
2022-08-09T11:07:56.964Z,97284.44
2022-08-09T11:09:15.287Z,97287.53
2022-08-09T11:10:47.122Z,97292.72
2022-08-09T11:11:58.898Z,97285.81
2022-08-09T11:13:49.377Z,97289.09
2022-08-09T11:14:48.653Z,97291.84
2022-08-09T11:16:04.482Z,97286.59
2022-08-09T11:17:32.421Z,97285.84
2022-08-09T11:18:46.065Z,97283.63
2022-08-09T11:20:19.670Z,97279.22
2022-08-09T11:21:56.831Z,97273.31
2022-08-09T11:23:10.330Z,97274.88
2022-08-09T11:24:13.134Z,97271.09
2022-08-09T11:25:16.301Z,97283.63
2022-08-09T11:26:40.693Z,97286.88
2022-08-09T11:28:04.706Z,97288.53
2022-08-09T11:30:04.405Z,97277.84
2022-08-09T11:31:49.213Z,97285.94
2022-08-09T11:33:30.592Z,97282.88
2022-08-09T11:34:41.605Z,97282.34
2022-08-09T11:58:30.296Z,97264.88
2022-08-09T11:59:35.168Z,97260.84
2022-08-09T12:00:52.950Z,97263.00
2022-08-09T12:02:01.169Z,97260.06
2022-08-09T12:03:54.703Z,97257.16
2022-08-09T12:04:40.387Z,97252.78
2022-08-09T12:05:47.253Z,97260.78
2022-08-09T12:06:58.413Z,97265.03
2022-08-09T12:08:00.612Z,97266.47
2022-08-09T12:09:17.588Z,97254.25
2022-08-09T12:10:38.572Z,97255.78
2022-08-09T12:12:02.064Z,97254.78
2022-08-09T12:13:03.744Z,97249.91
2022-08-09T12:14:40.603Z,97242.97
2022-08-09T12:15:59.437Z,97249.28
2022-08-09T12:17:01.037Z,97239.34
2022-08-09T12:18:25.913Z,97254.00
2022-08-09T12:19:32.087Z,97262.38
2022-08-09T12:20:34.534Z,97257.75
2022-08-09T12:21:39.259Z,97251.31
2022-08-09T12:23:01.917Z,97253.84
2022-08-09T12:24:09.523Z,97262.16
2022-08-09T12:25:36.765Z,97258.75
2022-08-09T12:29:13.567Z,97258.25
2022-08-09T12:29:15.301Z,97249.38
2022-08-09T12:29:44.570Z,97253.91
2022-08-09T12:30:57.652Z,97247.66
2022-08-09T12:32:08.151Z,97263.09
2022-08-09T12:33:10.810Z,97241.09
2022-08-09T12:34:13.465Z,97257.09
2022-08-09T12:35:19.403Z,97256.41
2022-08-09T12:36:31.805Z,97259.78
2022-08-09T12:37:49.742Z,97258.59
2022-08-09T12:38:54.569Z,97258.25
2022-08-09T12:40:08.337Z,97240.41
2022-08-09T12:41:10.063Z,97253.28
2022-08-09T12:42:16.630Z,97253.41
2022-08-09T13:04:39.979Z,97237.41
2022-08-09T13:05:51.668Z,97232.25
2022-08-09T13:07:16.765Z,97229.25
2022-08-09T13:08:39.821Z,97222.88
2022-08-09T13:09:43.326Z,97229.66
2022-08-09T13:10:58.732Z,97239.72
2022-08-09T13:12:03.851Z,97225.53
2022-08-09T13:13:11.245Z,97219.34
2022-08-09T13:14:43.997Z,97223.47
2022-08-09T13:15:51.392Z,97215.03
2022-08-09T13:16:59.482Z,97214.63
2022-08-09T13:18:09.344Z,97216.63
2022-08-09T13:19:22.104Z,97217.56
2022-08-09T13:20:37.494Z,97221.84
2022-08-09T13:22:37.549Z,97212.31
2022-08-09T13:24:07.316Z,97219.72
2022-08-09T13:25:03.985Z,97216.81
2022-08-09T13:26:05.636Z,97222.53
2022-08-09T13:27:29.065Z,97214.56
2022-08-09T13:28:34.562Z,97207.78
2022-08-09T13:30:03.156Z,97209.16
2022-08-09T13:32:15.269Z,97212.25
2022-08-09T13:32:54.095Z,97216.13
2022-08-09T13:33:56.512Z,97211.63
2022-08-09T13:34:58.006Z,97215.97
2022-08-09T13:36:24.761Z,97210.50
2022-08-09T13:37:51.423Z,97201.63
2022-08-09T13:38:55.088Z,97212.09
2022-08-09T13:41:55.681Z,97205.56
2022-08-09T13:41:57.506Z,97204.31
2022-08-09T13:42:44.406Z,97209.34
2022-08-09T13:43:46.306Z,97200.22
2022-08-09T13:44:49.227Z,97205.19
2022-08-09T13:46:44.725Z,97210.81
2022-08-09T13:47:29.131Z,97209.34
2022-08-09T13:48:34.567Z,97207.94
2022-08-09T13:49:37.827Z,97209.19
2022-08-09T13:50:41.949Z,97206.44
2022-08-09T13:51:59.686Z,97200.72
2022-08-09T14:14:23.073Z,97189.16
2022-08-09T14:15:01.011Z,97210.19
2022-08-09T14:16:08.971Z,97203.53
2022-08-09T14:17:13.021Z,97194.94
2022-08-09T14:18:19.828Z,97191.03
2022-08-09T14:19:33.319Z,97198.47
2022-08-09T14:20:35.166Z,97195.41
2022-08-09T14:21:36.744Z,97203.59
2022-08-09T14:22:38.278Z,97185.81
2022-08-09T14:23:40.310Z,97194.38
2022-08-09T14:24:53.596Z,97201.91
2022-08-09T14:26:01.327Z,97188.81
2022-08-09T14:27:03.363Z,97190.53
2022-08-09T14:28:21.481Z,97189.56
2022-08-09T14:30:20.385Z,97188.81
2022-08-09T14:30:50.002Z,97182.16
2022-08-09T14:31:53.667Z,97183.78
2022-08-09T14:32:55.796Z,97184.44
2022-08-09T14:33:59.201Z,97180.34
2022-08-09T14:35:07.027Z,97189.34
2022-08-09T14:36:19.613Z,97186.25
2022-08-09T14:37:22.485Z,97183.91
2022-08-09T14:38:30.054Z,97183.19
2022-08-09T14:39:39.982Z,97187.28
2022-08-09T14:41:02.153Z,97191.22
2022-08-09T14:42:04.129Z,97181.91
2022-08-09T14:43:06.304Z,97185.31
2022-08-09T14:44:11.115Z,97190.84
2022-08-09T14:46:58.523Z,97179.13
2022-08-09T14:47:00.749Z,97176.91
2022-08-09T14:47:59.774Z,97178.50
2022-08-09T14:49:02.444Z,97172.13
2022-08-09T14:50:06.565Z,97181.75
2022-08-09T14:51:08.534Z,97170.84
2022-08-09T14:52:10.420Z,97186.69
2022-08-09T14:53:13.825Z,97178.03
2022-08-09T14:54:16.706Z,97185.81
2022-08-09T14:55:23.628Z,97172.41
2022-08-09T14:56:26.842Z,97181.63
2022-08-09T14:57:31.870Z,97178.69
2022-08-09T14:58:45.452Z,97178.56
2022-08-09T14:59:49.271Z,97168.75
2022-08-09T15:00:51.961Z,97168.00
2022-08-09T15:01:53.691Z,97173.41
2022-08-09T15:02:55.153Z,97170.03
2022-08-09T15:03:59.950Z,97168.66
2022-08-09T15:05:06.890Z,97179.56
2022-08-09T15:06:09.767Z,97181.34
2022-08-09T15:07:13.001Z,97171.81
2022-08-09T15:08:16.434Z,97166.09
2022-08-09T15:10:03.091Z,97173.91
2022-08-09T15:10:43.006Z,97170.84
2022-08-09T15:12:03.266Z,97177.25
2022-08-09T15:13:06.042Z,97171.06
2022-08-09T15:14:13.056Z,97168.25
2022-08-09T15:15:16.743Z,97169.16
2022-08-09T15:16:18.513Z,97172.22
2022-08-09T15:17:19.997Z,97157.97
2022-08-09T15:18:21.472Z,97158.53
2022-08-09T15:19:26.062Z,97173.72
2022-08-09T15:22:00.540Z,97164.56
2022-08-09T15:22:00.966Z,97158.59
2022-08-09T15:24:01.984Z,97162.59
2022-08-09T15:24:27.581Z,97163.63
2022-08-09T15:25:39.328Z,97168.69
2022-08-09T15:26:45.957Z,97160.00
2022-08-09T15:28:00.604Z,97156.38
2022-08-09T15:29:04.782Z,97157.13
2022-08-09T15:30:56.161Z,97160.34
2022-08-09T15:31:40.891Z,97161.22
2022-08-09T15:32:45.686Z,97156.19
2022-08-09T15:34:17.265Z,97156.19
2022-08-09T15:35:40.302Z,97153.06
2022-08-09T15:36:30.699Z,97151.34
2022-08-09T15:37:38.072Z,97148.88
2022-08-09T15:38:59.845Z,97155.50
2022-08-09T15:40:03.112Z,97154.50
2022-08-09T15:41:13.194Z,97159.88
2022-08-09T15:42:23.574Z,97155.63
2022-08-09T15:43:36.850Z,97148.88
2022-08-09T15:44:39.273Z,97168.75
2022-08-09T15:46:07.510Z,97162.69
2022-08-09T15:47:03.935Z,97154.53
2022-08-09T15:48:28.743Z,97156.81
2022-08-09T15:49:30.378Z,97143.06
2022-08-09T15:50:32.104Z,97148.75
2022-08-09T15:52:02.191Z,97147.41
2022-08-09T15:53:06.559Z,97147.13
2022-08-09T15:54:21.956Z,97156.72
2022-08-09T15:55:34.547Z,97145.41
2022-08-09T15:56:53.826Z,97159.72
2022-08-09T15:57:55.326Z,97156.56
2022-08-09T15:58:57.102Z,97151.06
2022-08-09T15:59:58.592Z,97152.69
2022-08-09T16:01:00.141Z,97153.06
2022-08-09T16:02:01.884Z,97151.47
2022-08-09T16:03:03.299Z,97151.47
2022-08-09T16:04:04.950Z,97154.84
2022-08-09T16:05:08.674Z,97147.50
2022-08-09T16:06:29.260Z,97153.38
2022-08-09T16:07:39.353Z,97146.66
2022-08-09T16:08:44.426Z,97147.50
2022-08-09T16:09:57.615Z,97145.69
2022-08-09T16:11:05.791Z,97148.88
2022-08-09T16:12:11.589Z,97144.06
2022-08-09T16:13:18.550Z,97142.59
2022-08-09T16:14:24.111Z,97149.28
2022-08-09T16:16:10.306Z,97140.13
2022-08-09T16:16:54.362Z,97154.34
2022-08-09T16:17:56.170Z,97148.09
2022-08-09T16:18:57.891Z,97143.06
2022-08-09T16:20:05.281Z,97143.25
2022-08-09T16:21:10.500Z,97141.72
2022-08-09T16:22:14.759Z,97122.78
2022-08-09T16:23:19.860Z,97134.19
2022-08-09T16:24:33.132Z,97130.59
2022-08-09T16:25:40.262Z,97136.91
2022-08-09T16:26:42.232Z,97139.66
2022-08-09T16:27:43.660Z,97137.25
2022-08-09T16:28:49.446Z,97137.78
2022-08-09T16:29:54.254Z,97136.16
2022-08-09T16:30:58.915Z,97143.31
2022-08-09T16:32:17.663Z,97141.00
2022-08-09T16:33:23.269Z,97143.84
2022-08-09T16:34:25.798Z,97142.63
2022-08-09T16:35:55.849Z,97148.91
2022-08-09T16:36:48.948Z,97144.53
2022-08-09T16:37:55.181Z,97134.34
2022-08-09T16:38:59.053Z,97138.28
2022-08-09T16:40:00.485Z,97139.72
2022-08-09T16:41:06.541Z,97140.13
2022-08-09T16:42:09.480Z,97134.97
2022-08-09T16:43:16.390Z,97137.28
2022-08-09T16:44:19.609Z,97131.63
2022-08-09T16:45:23.065Z,97139.16
2022-08-09T16:46:24.445Z,97141.78
2022-08-09T16:48:39.645Z,97139.50
2022-08-09T16:48:59.305Z,97135.22
2022-08-09T16:50:31.927Z,97139.69
2022-08-09T16:51:28.361Z,97131.22
2022-08-09T16:52:29.807Z,97133.75
2022-08-09T16:53:34.004Z,97138.13
2022-08-09T16:54:35.908Z,97136.53
2022-08-09T16:56:00.278Z,97140.03
2022-08-09T16:56:59.175Z,97140.09
2022-08-09T16:58:08.455Z,97133.75
